createdAt,value
2017-08-31T00:00:34.747Z,10.67
2017-08-31T00:03:02.315Z,16.73
2017-08-31T00:05:29.838Z,7.90
2017-08-31T00:07:57.403Z,10.83
2017-08-31T00:10:24.938Z,11.40
2017-08-31T00:12:52.497Z,12.90
2017-08-31T00:15:20.026Z,10.93
2017-08-31T00:17:47.594Z,7.70
2017-08-31T00:20:15.113Z,9.90
2017-08-31T00:22:42.639Z,8.70
2017-08-31T00:25:10.189Z,13.40
2017-08-31T00:27:37.718Z,13.30
2017-08-31T00:30:05.272Z,16.63
2017-08-31T00:32:32.802Z,14.87
2017-08-31T00:35:00.347Z,11.80
2017-08-31T00:37:27.875Z,12.50
2017-08-31T00:39:55.431Z,13.80
2017-08-31T00:42:22.959Z,17.43
2017-08-31T00:44:50.514Z,8.90
2017-08-31T00:47:18.043Z,7.63
2017-08-31T00:49:45.594Z,9.10
2017-08-31T00:52:13.128Z,11.63
2017-08-31T00:54:40.688Z,10.63
2017-08-31T00:57:08.222Z,10.93
2017-08-31T00:59:35.755Z,13.37
2017-08-31T01:02:03.310Z,11.87
2017-08-31T01:04:30.833Z,7.97
2017-08-31T01:06:58.380Z,8.40
2017-08-31T01:09:25.917Z,10.50
2017-08-31T01:11:53.473Z,11.70
2017-08-31T01:14:21.003Z,12.07
2017-08-31T01:16:48.555Z,15.53
2017-08-31T01:19:16.091Z,13.67
2017-08-31T01:21:43.649Z,11.87
2017-08-31T01:24:11.170Z,8.50
2017-08-31T01:26:38.724Z,10.43
2017-08-31T01:29:06.246Z,16.10
2017-08-31T01:31:33.801Z,10.97
2017-08-31T01:34:01.335Z,15.47
2017-08-31T01:36:28.881Z,12.37
2017-08-31T01:38:56.411Z,11.60
2017-08-31T01:41:23.944Z,11.23
2017-08-31T01:43:51.487Z,15.00
2017-08-31T01:46:19.015Z,11.53
2017-08-31T01:48:46.570Z,15.03
2017-08-31T01:51:14.098Z,12.30
2017-08-31T01:53:41.654Z,14.30
2017-08-31T01:56:09.178Z,10.90
2017-08-31T01:58:36.726Z,8.03
2017-08-31T02:01:04.249Z,13.17
2017-08-31T02:03:31.812Z,11.60
2017-08-31T02:05:59.333Z,11.30
2017-08-31T02:08:26.882Z,8.43
2017-08-31T02:10:54.414Z,11.80
2017-08-31T02:13:21.966Z,10.43
2017-08-31T02:15:49.495Z,14.93
2017-08-31T02:18:17.041Z,8.63
2017-08-31T02:20:44.562Z,10.90
2017-08-31T02:23:12.110Z,12.77
2017-08-31T02:25:39.634Z,8.30
2017-08-31T02:28:07.185Z,11.50
2017-08-31T02:30:34.703Z,9.90
2017-08-31T02:33:02.234Z,9.93
2017-08-31T02:35:29.782Z,11.70
2017-08-31T02:37:57.319Z,12.90
2017-08-31T02:40:24.871Z,13.77
2017-08-31T02:42:52.407Z,13.83
2017-08-31T02:45:19.966Z,16.23
2017-08-31T02:47:47.498Z,11.63
2017-08-31T02:50:15.051Z,11.83
2017-08-31T02:52:42.587Z,13.97
2017-08-31T02:55:10.139Z,12.93
2017-08-31T02:57:37.672Z,20.13
2017-08-31T03:00:05.229Z,15.23
2017-08-31T03:02:32.757Z,16.30
2017-08-31T03:05:00.335Z,13.87
2017-08-31T03:07:27.866Z,16.53
2017-08-31T03:09:55.397Z,16.93
2017-08-31T03:12:22.951Z,13.20
2017-08-31T03:14:50.485Z,17.50
2017-08-31T03:17:18.039Z,19.47
2017-08-31T03:19:45.567Z,15.00
2017-08-31T03:22:13.130Z,13.73
2017-08-31T03:24:40.655Z,14.07
2017-08-31T03:27:08.202Z,12.20
2017-08-31T03:29:35.735Z,16.23
2017-08-31T03:32:03.307Z,13.93
2017-08-31T03:34:30.826Z,12.57
2017-08-31T03:36:58.381Z,13.70
2017-08-31T03:39:25.911Z,16.03
2017-08-31T03:41:53.561Z,11.50
2017-08-31T03:44:21.083Z,18.23
2017-08-31T03:46:48.606Z,12.00
2017-08-31T03:49:16.155Z,11.97
2017-08-31T03:51:43.686Z,12.00
2017-08-31T03:54:11.244Z,20.13
2017-08-31T03:56:38.762Z,11.47
2017-08-31T03:59:06.310Z,12.00
2017-08-31T04:01:33.834Z,13.27
2017-08-31T04:04:01.388Z,13.50
2017-08-31T04:06:28.918Z,14.20
2017-08-31T04:08:56.467Z,12.27
2017-08-31T04:11:24.057Z,12.70
2017-08-31T04:13:51.611Z,16.50
2017-08-31T04:16:19.138Z,11.80
2017-08-31T04:18:46.690Z,12.67
2017-08-31T04:21:14.223Z,11.03
2017-08-31T04:23:41.786Z,13.03
2017-08-31T04:26:09.331Z,9.83
2017-08-31T04:28:36.863Z,12.03
2017-08-31T04:31:04.408Z,12.00
2017-08-31T04:33:31.933Z,15.27
2017-08-31T04:35:59.482Z,13.27
2017-08-31T04:38:27.006Z,11.63
2017-08-31T04:40:54.571Z,16.50
2017-08-31T04:43:22.090Z,13.43
2017-08-31T04:45:49.642Z,16.37
2017-08-31T04:48:17.173Z,8.40
2017-08-31T04:50:44.727Z,12.27
2017-08-31T04:53:12.260Z,11.70
2017-08-31T04:55:39.947Z,10.00
2017-08-31T04:58:07.466Z,9.57
2017-08-31T05:00:35.018Z,12.80
2017-08-31T05:03:02.551Z,9.30
2017-08-31T05:05:30.815Z,9.27
2017-08-31T05:07:58.499Z,8.90
2017-08-31T05:10:26.036Z,9.73
2017-08-31T05:12:53.585Z,6.93
2017-08-31T05:15:21.110Z,4.80
2017-08-31T05:17:48.654Z,7.60
2017-08-31T05:20:16.182Z,7.03
2017-08-31T05:22:43.735Z,4.17
2017-08-31T05:25:11.258Z,5.37
2017-08-31T05:27:38.810Z,4.57
2017-08-31T05:30:06.362Z,6.43
2017-08-31T05:32:33.910Z,4.77
2017-08-31T05:35:01.439Z,5.10
2017-08-31T05:37:28.983Z,3.30
2017-08-31T05:39:56.511Z,3.70
2017-08-31T05:42:24.067Z,4.60
2017-08-31T05:44:51.610Z,4.00
2017-08-31T05:47:19.134Z,5.10
2017-08-31T05:49:46.678Z,3.57
2017-08-31T05:52:14.194Z,4.27
2017-08-31T05:54:41.739Z,4.17
2017-08-31T05:57:09.262Z,4.50
2017-08-31T05:59:36.803Z,6.00
2017-08-31T06:02:04.326Z,3.80
2017-08-31T06:04:31.890Z,4.40
2017-08-31T06:06:59.413Z,3.90
2017-08-31T06:09:26.938Z,4.70
2017-08-31T06:11:54.482Z,5.33
2017-08-31T06:14:22.006Z,5.37
2017-08-31T06:16:49.546Z,4.63
2017-08-31T06:19:17.071Z,8.10
2017-08-31T06:21:44.618Z,3.87
2017-08-31T06:24:12.147Z,4.43
2017-08-31T06:26:39.745Z,5.10
2017-08-31T06:29:07.266Z,4.73
2017-08-31T06:31:34.817Z,4.33
2017-08-31T06:34:02.339Z,5.40
2017-08-31T06:36:29.882Z,5.83
2017-08-31T06:38:57.417Z,4.60
2017-08-31T06:41:24.952Z,4.70
2017-08-31T06:43:52.503Z,6.70
2017-08-31T06:46:20.027Z,4.37
2017-08-31T06:48:47.570Z,5.00
2017-08-31T06:51:15.098Z,3.90
2017-08-31T06:53:42.646Z,3.80
2017-08-31T06:56:10.166Z,4.47
2017-08-31T06:58:37.724Z,4.70
2017-08-31T07:01:05.251Z,3.60
2017-08-31T07:03:32.808Z,4.73
2017-08-31T07:06:00.341Z,4.57
2017-08-31T07:08:27.882Z,3.57
2017-08-31T07:10:55.411Z,5.47
2017-08-31T07:13:22.962Z,4.23
2017-08-31T07:15:50.490Z,3.40
2017-08-31T07:18:18.046Z,2.87
2017-08-31T07:20:45.579Z,3.77
2017-08-31T07:23:13.122Z,3.20
2017-08-31T07:25:40.650Z,4.13
2017-08-31T07:28:08.206Z,5.43
2017-08-31T07:30:35.731Z,3.00
2017-08-31T07:33:03.254Z,3.77
2017-08-31T07:35:30.802Z,3.17
2017-08-31T07:37:58.327Z,3.33
2017-08-31T07:40:26.058Z,2.27
2017-08-31T07:42:53.582Z,2.20
2017-08-31T07:45:21.135Z,2.63
2017-08-31T07:47:48.654Z,2.40
2017-08-31T07:50:16.202Z,3.93
2017-08-31T07:52:43.771Z,4.10
2017-08-31T07:55:11.323Z,3.33
2017-08-31T07:57:38.849Z,2.40
2017-08-31T08:00:06.394Z,2.50
2017-08-31T08:02:33.951Z,2.10
2017-08-31T08:05:01.550Z,2.33
2017-08-31T08:07:29.105Z,4.73
2017-08-31T08:09:56.653Z,2.10
2017-08-31T08:12:24.184Z,3.47
2017-08-31T08:14:51.738Z,3.57
2017-08-31T08:17:19.263Z,3.73
2017-08-31T08:19:46.818Z,2.37
2017-08-31T08:22:14.355Z,2.50
2017-08-31T08:24:41.899Z,2.53
2017-08-31T08:27:09.415Z,3.27
2017-08-31T08:29:36.963Z,2.43
2017-08-31T08:32:04.492Z,3.63
2017-08-31T08:34:32.018Z,2.77
2017-08-31T08:36:59.570Z,3.93
2017-08-31T08:39:27.094Z,2.57
2017-08-31T08:41:54.644Z,2.30
2017-08-31T08:44:22.166Z,2.70
2017-08-31T08:46:49.733Z,3.20
2017-08-31T08:49:17.267Z,3.23
2017-08-31T08:51:44.810Z,2.93
2017-08-31T08:54:12.338Z,4.00
2017-08-31T08:56:39.883Z,4.57
2017-08-31T08:59:07.406Z,2.50
2017-08-31T09:01:34.947Z,3.53
2017-08-31T09:04:02.467Z,3.63
2017-08-31T09:06:30.011Z,2.47
2017-08-31T09:08:57.531Z,2.33
2017-08-31T09:11:25.078Z,2.67
2017-08-31T09:13:52.608Z,3.10
2017-08-31T09:16:20.162Z,3.40
2017-08-31T09:18:47.687Z,2.50
2017-08-31T09:21:15.239Z,3.17
2017-08-31T09:23:42.763Z,2.30
2017-08-31T09:26:10.325Z,2.10
2017-08-31T09:28:37.847Z,2.20
2017-08-31T09:31:05.375Z,2.10
2017-08-31T09:33:32.931Z,3.40
2017-08-31T09:36:00.462Z,2.07
2017-08-31T09:38:28.011Z,2.30
2017-08-31T09:40:55.543Z,2.33
2017-08-31T09:43:23.860Z,2.37
2017-08-31T09:45:51.388Z,2.30
2017-08-31T09:48:18.940Z,3.63
2017-08-31T09:50:46.474Z,2.93
2017-08-31T09:53:14.018Z,2.00
2017-08-31T09:55:41.547Z,2.23
2017-08-31T09:58:09.102Z,2.70
2017-08-31T10:03:09.467Z,2.57
2017-08-31T10:05:36.999Z,2.20
2017-08-31T10:08:04.559Z,2.40
2017-08-31T10:10:32.092Z,3.00
2017-08-31T10:12:59.634Z,2.10
2017-08-31T10:15:27.160Z,2.97
2017-08-31T10:17:54.702Z,2.20
2017-08-31T10:20:22.229Z,2.20
2017-08-31T10:22:49.785Z,2.20
2017-08-31T10:25:17.310Z,2.30
2017-08-31T10:27:44.838Z,2.77
2017-08-31T10:30:12.394Z,3.77
2017-08-31T10:32:39.916Z,3.70
2017-08-31T10:35:07.480Z,3.50
2017-08-31T10:37:35.028Z,3.37
2017-08-31T10:40:02.579Z,2.20
2017-08-31T10:42:30.101Z,3.30
2017-08-31T10:44:57.638Z,2.73
2017-08-31T10:47:25.158Z,2.10
2017-08-31T10:49:52.703Z,3.40
2017-08-31T10:52:20.233Z,5.30
2017-08-31T10:54:48.547Z,2.30
2017-08-31T10:57:16.066Z,2.20
2017-08-31T10:59:43.612Z,3.13
2017-08-31T11:02:11.142Z,2.43
2017-08-31T11:04:38.695Z,2.30
2017-08-31T11:07:06.214Z,2.87
2017-08-31T11:09:33.755Z,2.10
2017-08-31T11:12:01.282Z,3.03
2017-08-31T11:14:28.834Z,2.20
2017-08-31T11:16:56.523Z,2.67
2017-08-31T11:19:24.071Z,2.60
2017-08-31T11:21:51.589Z,2.47
2017-08-31T11:24:19.135Z,3.30
2017-08-31T11:26:46.656Z,3.40
2017-08-31T11:29:14.326Z,2.40
2017-08-31T11:31:41.826Z,2.30
2017-08-31T11:34:10.136Z,3.27
2017-08-31T11:36:37.796Z,2.70
2017-08-31T11:39:05.183Z,2.80
2017-08-31T11:41:32.744Z,2.73
2017-08-31T11:44:00.272Z,2.50
2017-08-31T11:46:27.822Z,2.20
2017-08-31T11:48:55.345Z,3.40
2017-08-31T11:51:22.887Z,2.40
2017-08-31T11:53:50.426Z,3.40
2017-08-31T11:56:17.978Z,2.33
2017-08-31T11:58:45.512Z,2.63
2017-08-31T12:01:13.054Z,2.50
2017-08-31T12:03:40.574Z,3.13
2017-08-31T12:06:08.126Z,2.30
2017-08-31T12:08:35.659Z,4.67
2017-08-31T12:11:03.210Z,2.80
2017-08-31T12:13:30.734Z,3.07
2017-08-31T12:15:58.319Z,2.70
2017-08-31T12:18:25.842Z,2.77
2017-08-31T12:20:53.362Z,3.30
2017-08-31T12:23:20.922Z,2.80
2017-08-31T12:25:48.446Z,2.60
2017-08-31T12:28:15.999Z,2.60
2017-08-31T12:30:43.525Z,5.93
2017-08-31T12:33:11.076Z,3.33
2017-08-31T12:35:39.362Z,6.73
2017-08-31T12:38:06.906Z,3.40
2017-08-31T12:40:34.432Z,4.50
2017-08-31T12:43:01.975Z,3.10
2017-08-31T12:45:29.491Z,4.20
2017-08-31T12:47:57.035Z,4.33
2017-08-31T12:50:24.559Z,4.63
2017-08-31T12:52:52.105Z,3.63
2017-08-31T12:55:19.631Z,4.17
2017-08-31T12:57:47.949Z,3.20
2017-08-31T13:00:15.480Z,4.23
2017-08-31T13:02:43.050Z,4.03
2017-08-31T13:05:10.576Z,4.50
2017-08-31T13:07:38.871Z,3.43
2017-08-31T13:10:06.418Z,4.23
2017-08-31T13:12:34.702Z,4.10
2017-08-31T13:15:02.247Z,3.60
2017-08-31T13:17:30.539Z,4.07
2017-08-31T13:19:58.083Z,4.53
2017-08-31T13:22:25.602Z,4.47
2017-08-31T13:24:53.164Z,5.40
2017-08-31T13:27:20.682Z,4.20
2017-08-31T13:29:48.230Z,4.60
2017-08-31T13:32:15.755Z,3.30
2017-08-31T13:34:43.301Z,4.20
2017-08-31T13:37:10.830Z,3.10
2017-08-31T13:39:38.379Z,3.00
2017-08-31T13:42:05.904Z,4.43
2017-08-31T13:44:33.470Z,3.23
2017-08-31T13:47:00.995Z,5.00
2017-08-31T13:49:28.519Z,3.80
2017-08-31T13:51:56.062Z,3.37
2017-08-31T13:54:23.596Z,3.47
2017-08-31T13:56:51.173Z,3.20
2017-08-31T13:59:18.694Z,5.83
2017-08-31T14:01:46.384Z,3.90
2017-08-31T14:04:14.890Z,4.03
2017-08-31T14:06:42.435Z,3.00
2017-08-31T14:09:09.986Z,2.90
2017-08-31T14:11:37.535Z,4.10
2017-08-31T14:14:05.060Z,4.63
2017-08-31T14:16:32.607Z,3.70
2017-08-31T14:19:00.132Z,3.00
2017-08-31T14:21:27.685Z,4.30
2017-08-31T14:23:55.215Z,5.23
2017-08-31T14:26:22.765Z,3.20
2017-08-31T14:28:50.294Z,3.83
2017-08-31T14:31:17.815Z,4.10
2017-08-31T14:33:45.374Z,3.70
2017-08-31T14:36:12.895Z,3.50
2017-08-31T14:38:40.446Z,3.77
2017-08-31T14:41:07.971Z,3.57
2017-08-31T14:43:35.530Z,3.60
2017-08-31T14:46:03.050Z,4.23
2017-08-31T14:48:30.598Z,3.80
2017-08-31T14:50:58.120Z,4.53
2017-08-31T14:53:25.694Z,4.40
2017-08-31T14:55:53.222Z,3.67
2017-08-31T14:58:20.767Z,3.73
2017-08-31T15:00:48.286Z,3.50
2017-08-31T15:03:15.842Z,4.40
2017-08-31T15:05:43.511Z,3.57
2017-08-31T15:08:11.143Z,3.50
2017-08-31T15:10:38.702Z,3.83
2017-08-31T15:13:06.262Z,4.63
2017-08-31T15:15:33.850Z,3.50
2017-08-31T15:18:01.398Z,3.80
2017-08-31T15:20:28.921Z,4.47
2017-08-31T15:22:56.462Z,2.80
2017-08-31T15:25:23.986Z,4.00
2017-08-31T15:27:51.552Z,5.00
2017-08-31T15:30:19.427Z,5.77
2017-08-31T15:32:46.987Z,5.93
2017-08-31T15:35:14.531Z,6.60
2017-08-31T15:37:42.059Z,3.70
2017-08-31T15:40:09.611Z,3.37
2017-08-31T15:42:37.134Z,5.23
2017-08-31T15:45:04.677Z,3.10
2017-08-31T15:47:32.190Z,4.07
2017-08-31T15:49:59.734Z,3.73
2017-08-31T15:52:27.271Z,5.00
2017-08-31T15:54:54.820Z,6.90
2017-08-31T15:57:22.343Z,6.77
2017-08-31T15:59:49.894Z,4.17
2017-08-31T16:02:17.416Z,3.77
2017-08-31T16:04:44.958Z,3.80
2017-08-31T16:07:12.487Z,4.03
2017-08-31T16:09:40.043Z,5.53
2017-08-31T16:12:07.567Z,3.33
2017-08-31T16:14:35.115Z,5.10
2017-08-31T16:17:02.657Z,4.90
2017-08-31T16:19:30.184Z,3.53
2017-08-31T16:21:57.728Z,4.57
2017-08-31T16:24:25.249Z,3.57
2017-08-31T16:26:52.803Z,6.07
2017-08-31T16:29:20.327Z,3.70
2017-08-31T16:31:47.874Z,3.13
2017-08-31T16:34:15.390Z,3.67
2017-08-31T16:36:42.944Z,8.00
2017-08-31T16:39:10.463Z,4.83
2017-08-31T16:41:38.011Z,4.17
2017-08-31T16:44:05.535Z,5.60
2017-08-31T16:46:33.084Z,4.93
2017-08-31T16:49:00.599Z,3.60
2017-08-31T16:51:28.139Z,4.13
2017-08-31T16:53:55.658Z,4.30
2017-08-31T16:56:23.202Z,3.60
2017-08-31T16:58:50.722Z,4.43
2017-08-31T17:01:18.283Z,3.47
2017-08-31T17:03:45.807Z,5.10
2017-08-31T17:06:13.354Z,4.40
2017-08-31T17:08:40.916Z,4.87
2017-08-31T17:11:08.435Z,5.13
2017-08-31T17:13:35.978Z,3.60
2017-08-31T17:16:03.502Z,7.23
2017-08-31T17:18:31.070Z,4.17
2017-08-31T17:20:58.599Z,4.90
2017-08-31T17:23:26.148Z,4.47
2017-08-31T17:25:53.666Z,5.30
2017-08-31T17:28:21.223Z,5.43
2017-08-31T17:30:48.758Z,7.43
2017-08-31T17:33:16.306Z,4.43
2017-08-31T17:35:43.827Z,4.53
2017-08-31T17:38:11.371Z,3.83
2017-08-31T17:40:38.893Z,6.57
2017-08-31T17:43:06.442Z,4.60
2017-08-31T17:45:33.966Z,5.43
2017-08-31T17:48:01.515Z,4.40
2017-08-31T17:50:29.038Z,6.57
2017-08-31T17:52:56.603Z,5.37
2017-08-31T17:55:24.157Z,6.03
2017-08-31T17:57:51.708Z,5.50
2017-08-31T18:00:19.234Z,4.80
2017-08-31T18:02:46.770Z,5.17
2017-08-31T18:05:14.319Z,5.70
2017-08-31T18:07:41.851Z,6.00
2017-08-31T18:10:09.399Z,4.00
2017-08-31T18:12:36.941Z,5.90
2017-08-31T18:15:04.505Z,6.10
2017-08-31T18:20:25.546Z,7.63
2017-08-31T18:22:53.071Z,5.90
2017-08-31T18:25:21.382Z,4.90
2017-08-31T18:27:48.903Z,4.60
2017-08-31T18:30:16.454Z,4.70
2017-08-31T18:32:43.987Z,6.10
2017-08-31T18:35:11.550Z,6.23
2017-08-31T18:37:39.080Z,4.87
2017-08-31T18:40:06.630Z,5.63
2017-08-31T18:42:34.151Z,5.10
2017-08-31T18:45:01.711Z,4.67
2017-08-31T18:47:29.251Z,7.03
2017-08-31T18:49:56.808Z,4.53
2017-08-31T18:52:24.343Z,4.77
2017-08-31T18:54:51.894Z,6.20
2017-08-31T18:57:19.414Z,4.17
2017-08-31T18:59:46.978Z,6.90
2017-08-31T19:05:08.136Z,4.67
2017-08-31T19:07:35.663Z,5.30
2017-08-31T19:10:03.214Z,4.90
2017-08-31T19:12:30.850Z,5.00
2017-08-31T19:14:58.511Z,4.73
2017-08-31T19:17:26.039Z,4.90
2017-08-31T19:19:53.579Z,5.17
2017-08-31T19:22:21.134Z,6.63
2017-08-31T19:24:48.718Z,6.73
2017-08-31T19:27:16.263Z,5.83
2017-08-31T19:29:43.791Z,5.63
2017-08-31T19:32:11.346Z,5.40
2017-08-31T19:34:39.346Z,7.63
2017-08-31T19:37:06.889Z,6.40
2017-08-31T19:39:34.419Z,6.63
2017-08-31T19:42:01.976Z,7.10
2017-08-31T19:44:29.511Z,8.60
2017-08-31T19:46:57.269Z,10.20
2017-08-31T19:49:24.822Z,10.70
2017-08-31T19:51:52.402Z,10.67
2017-08-31T19:54:40.039Z,9.73
2017-08-31T19:57:07.611Z,10.30
2017-08-31T19:59:35.857Z,9.03
2017-08-31T20:02:04.375Z,11.67
2017-08-31T20:04:31.906Z,8.40
2017-08-31T20:07:00.132Z,9.33
2017-08-31T20:09:27.666Z,7.37
2017-08-31T20:11:55.270Z,9.77
2017-08-31T20:14:23.144Z,6.60
2017-08-31T20:16:50.935Z,6.90
2017-08-31T20:19:18.455Z,6.90
2017-08-31T20:21:46.051Z,6.40
2017-08-31T20:24:13.594Z,5.50
2017-08-31T20:26:41.126Z,7.30
2017-08-31T20:29:08.831Z,6.03
2017-08-31T20:31:36.359Z,6.70
2017-08-31T20:34:03.902Z,5.47
2017-08-31T20:36:31.431Z,5.30
2017-08-31T20:38:58.978Z,6.83
2017-08-31T20:41:26.518Z,4.73
2017-08-31T20:43:54.067Z,5.60
2017-08-31T20:46:21.734Z,6.27
2017-08-31T20:48:49.278Z,5.63
2017-08-31T20:51:16.811Z,7.73
2017-08-31T20:53:44.371Z,7.93
2017-08-31T20:56:11.903Z,8.50
2017-08-31T20:58:39.451Z,5.33
2017-08-31T21:01:06.982Z,6.67
2017-08-31T21:03:34.527Z,6.40
2017-08-31T21:06:02.050Z,7.87
2017-08-31T21:08:29.599Z,6.13
2017-08-31T21:10:57.123Z,6.03
2017-08-31T21:13:24.682Z,7.63
2017-08-31T21:15:52.225Z,5.90
2017-08-31T21:18:19.750Z,5.90
2017-08-31T21:20:47.294Z,6.73
2017-08-31T21:23:14.958Z,8.77
2017-08-31T21:25:42.503Z,6.00
2017-08-31T21:28:10.033Z,8.33
2017-08-31T21:30:37.579Z,5.60
2017-08-31T21:33:05.102Z,5.90
2017-08-31T21:35:32.650Z,8.80
2017-08-31T21:38:00.185Z,9.13
2017-08-31T21:40:27.735Z,6.60
2017-08-31T21:42:55.268Z,7.93
2017-08-31T21:45:22.835Z,8.50
2017-08-31T21:47:50.363Z,7.03
2017-08-31T21:50:17.913Z,7.13
2017-08-31T21:52:45.438Z,6.77
2017-08-31T21:55:12.991Z,13.10
2017-08-31T21:57:40.524Z,8.10
2017-08-31T22:00:08.071Z,8.10
2017-08-31T22:02:35.607Z,9.27
2017-08-31T22:05:03.165Z,8.03
2017-08-31T22:07:30.694Z,7.70
2017-08-31T22:09:58.258Z,12.40
2017-08-31T22:12:25.780Z,9.60
2017-08-31T22:14:53.303Z,8.07
2017-08-31T22:17:20.855Z,10.10
2017-08-31T22:19:48.387Z,11.50
2017-08-31T22:22:15.933Z,8.73
2017-08-31T22:24:43.458Z,10.07
2017-08-31T22:27:11.016Z,10.57
2017-08-31T22:29:38.572Z,8.47
2017-08-31T22:51:36.007Z,13.43
2017-08-31T22:54:03.533Z,13.27
2017-08-31T22:56:43.118Z,10.50
2017-08-31T22:59:10.647Z,13.17
2017-08-31T23:01:38.204Z,16.80
2017-08-31T23:04:05.736Z,12.57
2017-08-31T23:06:33.284Z,13.83
2017-08-31T23:09:00.812Z,10.83
2017-08-31T23:11:28.367Z,13.33
2017-08-31T23:13:55.901Z,15.93
2017-08-31T23:16:23.450Z,13.17
2017-08-31T23:18:51.006Z,15.87
2017-08-31T23:21:18.543Z,17.60
2017-08-31T23:23:46.094Z,17.20
2017-08-31T23:26:13.637Z,17.80
2017-08-31T23:28:41.192Z,16.57
2017-08-31T23:31:08.719Z,17.23
2017-08-31T23:33:36.278Z,21.10
2017-08-31T23:36:03.810Z,15.70
2017-08-31T23:38:31.365Z,15.93
2017-08-31T23:40:58.895Z,14.60
2017-08-31T23:43:26.442Z,13.27
2017-08-31T23:45:53.974Z,19.80
2017-08-31T23:48:21.539Z,14.60
2017-08-31T23:50:49.062Z,17.73
2017-08-31T23:53:16.615Z,16.80
2017-08-31T23:55:44.138Z,15.00
2017-08-31T23:58:11.700Z,18.47
